sensor_id;sensor_type;location;lat;lon;timestamp;P1;durP1;ratioP1;P2;durP2;ratioP2
76566;SDS011;65428;53.194;6.132;2023-07-09T00:00:06;8.60;;;7.80;;
76566;SDS011;65428;53.194;6.132;2023-07-09T00:02:39;10.40;;;8.45;;
76566;SDS011;65428;53.194;6.132;2023-07-09T00:05:05;8.32;;;7.50;;
76566;SDS011;65428;53.194;6.132;2023-07-09T00:07:34;8.52;;;7.63;;
76566;SDS011;65428;53.194;6.132;2023-07-09T00:10:00;8.85;;;7.72;;
76566;SDS011;65428;53.194;6.132;2023-07-09T00:12:26;8.95;;;8.05;;
76566;SDS011;65428;53.194;6.132;2023-07-09T00:14:52;9.50;;;8.50;;
76566;SDS011;65428;53.194;6.132;2023-07-09T00:19:53;10.40;;;8.87;;
76566;SDS011;65428;53.194;6.132;2023-07-09T00:22:19;9.50;;;8.60;;
76566;SDS011;65428;53.194;6.132;2023-07-09T00:24:51;10.87;;;8.13;;
76566;SDS011;65428;53.194;6.132;2023-07-09T00:27:17;9.15;;;8.25;;
76566;SDS011;65428;53.194;6.132;2023-07-09T00:29:45;9.13;;;8.07;;
76566;SDS011;65428;53.194;6.132;2023-07-09T00:32:14;9.60;;;8.48;;
76566;SDS011;65428;53.194;6.132;2023-07-09T00:34:42;10.57;;;8.88;;
76566;SDS011;65428;53.194;6.132;2023-07-09T00:37:13;9.67;;;8.63;;
76566;SDS011;65428;53.194;6.132;2023-07-09T00:39:44;9.40;;;8.40;;
76566;SDS011;65428;53.194;6.132;2023-07-09T00:42:12;9.68;;;8.45;;
76566;SDS011;65428;53.194;6.132;2023-07-09T00:44:42;9.35;;;8.35;;
76566;SDS011;65428;53.194;6.132;2023-07-09T00:47:15;11.07;;;8.93;;
76566;SDS011;65428;53.194;6.132;2023-07-09T00:49:49;10.20;;;8.60;;
76566;SDS011;65428;53.194;6.132;2023-07-09T00:52:51;9.55;;;8.50;;
76566;SDS011;65428;53.194;6.132;2023-07-09T00:55:15;12.05;;;8.90;;
76566;SDS011;65428;53.194;6.132;2023-07-09T00:57:44;9.07;;;8.18;;
76566;SDS011;65428;53.194;6.132;2023-07-09T01:00:21;9.57;;;8.65;;
76566;SDS011;65428;53.194;6.132;2023-07-09T01:02:48;9.40;;;8.25;;
76566;SDS011;65428;53.194;6.132;2023-07-09T01:05:14;11.23;;;9.15;;
76566;SDS011;65428;53.194;6.132;2023-07-09T01:07:42;9.98;;;8.93;;
76566;SDS011;65428;53.194;6.132;2023-07-09T01:10:11;9.73;;;8.73;;
76566;SDS011;65428;53.194;6.132;2023-07-09T01:12:39;10.02;;;9.02;;
76566;SDS011;65428;53.194;6.132;2023-07-09T01:15:05;9.57;;;8.68;;
76566;SDS011;65428;53.194;6.132;2023-07-09T01:17:32;11.15;;;8.80;;
76566;SDS011;65428;53.194;6.132;2023-07-09T01:19:58;10.07;;;9.17;;
76566;SDS011;65428;53.194;6.132;2023-07-09T01:22:25;9.47;;;8.50;;
76566;SDS011;65428;53.194;6.132;2023-07-09T01:27:22;9.70;;;8.80;;
76566;SDS011;65428;53.194;6.132;2023-07-09T01:29:53;9.45;;;8.50;;
76566;SDS011;65428;53.194;6.132;2023-07-09T01:32:20;9.57;;;8.68;;
76566;SDS011;65428;53.194;6.132;2023-07-09T01:34:49;10.07;;;8.85;;
76566;SDS011;65428;53.194;6.132;2023-07-09T01:37:20;10.07;;;9.00;;
76566;SDS011;65428;53.194;6.132;2023-07-09T01:39:50;8.88;;;8.00;;
76566;SDS011;65428;53.194;6.132;2023-07-09T01:42:17;9.53;;;8.63;;
76566;SDS011;65428;53.194;6.132;2023-07-09T01:44:46;11.82;;;8.95;;
76566;SDS011;65428;53.194;6.132;2023-07-09T01:47:14;9.80;;;8.85;;
76566;SDS011;65428;53.194;6.132;2023-07-09T01:49:40;11.68;;;9.20;;
76566;SDS011;65428;53.194;6.132;2023-07-09T01:52:06;9.33;;;8.43;;
76566;SDS011;65428;53.194;6.132;2023-07-09T01:54:34;9.77;;;8.77;;
76566;SDS011;65428;53.194;6.132;2023-07-09T01:57:13;9.70;;;8.65;;
76566;SDS011;65428;53.194;6.132;2023-07-09T01:59:39;10.48;;;8.82;;
76566;SDS011;65428;53.194;6.132;2023-07-09T02:02:06;10.45;;;8.80;;
76566;SDS011;65428;53.194;6.132;2023-07-09T02:04:43;10.23;;;9.23;;
76566;SDS011;65428;53.194;6.132;2023-07-09T02:07:09;9.20;;;8.27;;
76566;SDS011;65428;53.194;6.132;2023-07-09T02:09:34;9.65;;;8.75;;
76566;SDS011;65428;53.194;6.132;2023-07-09T02:12:00;10.40;;;9.30;;
76566;SDS011;65428;53.194;6.132;2023-07-09T02:14:27;10.40;;;9.40;;
76566;SDS011;65428;53.194;6.132;2023-07-09T02:16:53;10.05;;;9.13;;
76566;SDS011;65428;53.194;6.132;2023-07-09T02:19:19;9.60;;;8.70;;
76566;SDS011;65428;53.194;6.132;2023-07-09T02:21:44;9.75;;;8.88;;
76566;SDS011;65428;53.194;6.132;2023-07-09T02:24:10;9.37;;;8.47;;
76566;SDS011;65428;53.194;6.132;2023-07-09T02:26:36;10.25;;;9.18;;
76566;SDS011;65428;53.194;6.132;2023-07-09T02:29:01;10.70;;;9.63;;
76566;SDS011;65428;53.194;6.132;2023-07-09T02:31:27;10.63;;;9.52;;
76566;SDS011;65428;53.194;6.132;2023-07-09T02:33:55;11.13;;;9.70;;
76566;SDS011;65428;53.194;6.132;2023-07-09T02:36:22;10.40;;;9.40;;
76566;SDS011;65428;53.194;6.132;2023-07-09T02:38:49;10.55;;;9.55;;
76566;SDS011;65428;53.194;6.132;2023-07-09T02:41:14;10.27;;;9.27;;
76566;SDS011;65428;53.194;6.132;2023-07-09T02:43:40;10.63;;;9.50;;
76566;SDS011;65428;53.194;6.132;2023-07-09T02:46:06;9.73;;;8.75;;
76566;SDS011;65428;53.194;6.132;2023-07-09T02:48:32;9.97;;;9.03;;
76566;SDS011;65428;53.194;6.132;2023-07-09T02:50:58;10.88;;;9.88;;
76566;SDS011;65428;53.194;6.132;2023-07-09T02:53:23;10.88;;;9.88;;
76566;SDS011;65428;53.194;6.132;2023-07-09T02:55:49;10.03;;;9.03;;
76566;SDS011;65428;53.194;6.132;2023-07-09T02:58:14;10.20;;;9.30;;
76566;SDS011;65428;53.194;6.132;2023-07-09T03:00:41;11.02;;;9.93;;
76566;SDS011;65428;53.194;6.132;2023-07-09T03:03:07;11.17;;;10.13;;
76566;SDS011;65428;53.194;6.132;2023-07-09T03:05:33;10.80;;;9.68;;
76566;SDS011;65428;53.194;6.132;2023-07-09T03:07:58;10.95;;;9.85;;
76566;SDS011;65428;53.194;6.132;2023-07-09T03:10:24;10.87;;;9.77;;
76566;SDS011;65428;53.194;6.132;2023-07-09T03:12:50;10.70;;;9.55;;
76566;SDS011;65428;53.194;6.132;2023-07-09T03:15:15;10.87;;;9.77;;
76566;SDS011;65428;53.194;6.132;2023-07-09T03:17:41;10.82;;;9.77;;
76566;SDS011;65428;53.194;6.132;2023-07-09T03:20:07;10.20;;;9.20;;
76566;SDS011;65428;53.194;6.132;2023-07-09T03:22:33;10.73;;;9.73;;
76566;SDS011;65428;53.194;6.132;2023-07-09T03:24:59;10.70;;;9.60;;
76566;SDS011;65428;53.194;6.132;2023-07-09T03:27:24;10.80;;;9.70;;
76566;SDS011;65428;53.194;6.132;2023-07-09T03:29:50;11.07;;;9.98;;
76566;SDS011;65428;53.194;6.132;2023-07-09T03:32:16;10.97;;;9.87;;
76566;SDS011;65428;53.194;6.132;2023-07-09T03:34:41;11.23;;;10.07;;
76566;SDS011;65428;53.194;6.132;2023-07-09T03:37:07;10.70;;;9.53;;
76566;SDS011;65428;53.194;6.132;2023-07-09T03:39:32;10.60;;;9.57;;
76566;SDS011;65428;53.194;6.132;2023-07-09T03:41:58;11.00;;;9.90;;
76566;SDS011;65428;53.194;6.132;2023-07-09T03:44:25;10.75;;;9.75;;
76566;SDS011;65428;53.194;6.132;2023-07-09T03:46:50;11.20;;;10.00;;
76566;SDS011;65428;53.194;6.132;2023-07-09T03:49:16;10.25;;;9.20;;
76566;SDS011;65428;53.194;6.132;2023-07-09T03:51:42;11.13;;;10.00;;
76566;SDS011;65428;53.194;6.132;2023-07-09T03:54:07;11.38;;;10.07;;
76566;SDS011;65428;53.194;6.132;2023-07-09T03:56:33;10.50;;;9.50;;
76566;SDS011;65428;53.194;6.132;2023-07-09T03:58:59;12.02;;;9.95;;
76566;SDS011;65428;53.194;6.132;2023-07-09T04:01:24;10.67;;;9.67;;
76566;SDS011;65428;53.194;6.132;2023-07-09T04:03:50;11.30;;;10.20;;
76566;SDS011;65428;53.194;6.132;2023-07-09T04:06:16;10.88;;;9.38;;
76566;SDS011;65428;53.194;6.132;2023-07-09T04:08:41;10.23;;;8.87;;
76566;SDS011;65428;53.194;6.132;2023-07-09T04:11:07;10.35;;;9.35;;
76566;SDS011;65428;53.194;6.132;2023-07-09T04:13:33;11.37;;;9.93;;
76566;SDS011;65428;53.194;6.132;2023-07-09T04:15:58;10.70;;;9.70;;
76566;SDS011;65428;53.194;6.132;2023-07-09T04:18:24;10.87;;;9.90;;
76566;SDS011;65428;53.194;6.132;2023-07-09T04:20:50;11.57;;;10.38;;
76566;SDS011;65428;53.194;6.132;2023-07-09T04:23:17;10.50;;;8.75;;
76566;SDS011;65428;53.194;6.132;2023-07-09T04:25:43;10.88;;;9.80;;
76566;SDS011;65428;53.194;6.132;2023-07-09T04:28:09;11.20;;;10.20;;
76566;SDS011;65428;53.194;6.132;2023-07-09T04:30:35;11.80;;;10.80;;
76566;SDS011;65428;53.194;6.132;2023-07-09T04:33:00;10.57;;;9.47;;
76566;SDS011;65428;53.194;6.132;2023-07-09T04:35:26;11.23;;;10.02;;
76566;SDS011;65428;53.194;6.132;2023-07-09T04:37:52;10.27;;;9.27;;
76566;SDS011;65428;53.194;6.132;2023-07-09T04:40:18;10.30;;;9.30;;
76566;SDS011;65428;53.194;6.132;2023-07-09T04:42:44;10.60;;;9.70;;
76566;SDS011;65428;53.194;6.132;2023-07-09T04:45:10;10.98;;;9.02;;
76566;SDS011;65428;53.194;6.132;2023-07-09T04:47:37;10.57;;;9.57;;
76566;SDS011;65428;53.194;6.132;2023-07-09T04:50:04;11.10;;;9.63;;
76566;SDS011;65428;53.194;6.132;2023-07-09T04:52:32;10.25;;;9.05;;
76566;SDS011;65428;53.194;6.132;2023-07-09T04:54:58;11.38;;;9.70;;
76566;SDS011;65428;53.194;6.132;2023-07-09T04:57:24;10.60;;;9.60;;
76566;SDS011;65428;53.194;6.132;2023-07-09T04:59:51;11.70;;;9.43;;
76566;SDS011;65428;53.194;6.132;2023-07-09T05:02:17;10.80;;;9.70;;
76566;SDS011;65428;53.194;6.132;2023-07-09T05:04:43;10.73;;;9.60;;
76566;SDS011;65428;53.194;6.132;2023-07-09T05:07:08;10.23;;;9.15;;
76566;SDS011;65428;53.194;6.132;2023-07-09T05:24:10;10.37;;;9.33;;
76566;SDS011;65428;53.194;6.132;2023-07-09T05:26:36;10.73;;;9.43;;
76566;SDS011;65428;53.194;6.132;2023-07-09T05:29:03;10.87;;;9.53;;
76566;SDS011;65428;53.194;6.132;2023-07-09T05:31:32;12.23;;;10.00;;
76566;SDS011;65428;53.194;6.132;2023-07-09T05:34:01;10.15;;;9.15;;
76566;SDS011;65428;53.194;6.132;2023-07-09T05:36:36;10.10;;;9.10;;
76566;SDS011;65428;53.194;6.132;2023-07-09T05:39:09;10.82;;;9.15;;
76566;SDS011;65428;53.194;6.132;2023-07-09T05:41:35;10.27;;;9.25;;
76566;SDS011;65428;53.194;6.132;2023-07-09T05:44:01;10.77;;;9.63;;
76566;SDS011;65428;53.194;6.132;2023-07-09T05:46:27;10.50;;;9.27;;
76566;SDS011;65428;53.194;6.132;2023-07-09T05:48:52;9.97;;;8.97;;
76566;SDS011;65428;53.194;6.132;2023-07-09T05:51:18;9.88;;;8.88;;
76566;SDS011;65428;53.194;6.132;2023-07-09T05:53:46;9.88;;;8.98;;
76566;SDS011;65428;53.194;6.132;2023-07-09T05:56:12;10.55;;;8.80;;
76566;SDS011;65428;53.194;6.132;2023-07-09T05:58:37;12.17;;;9.27;;
76566;SDS011;65428;53.194;6.132;2023-07-09T06:01:03;10.20;;;9.25;;
76566;SDS011;65428;53.194;6.132;2023-07-09T06:03:29;10.40;;;9.37;;
76566;SDS011;65428;53.194;6.132;2023-07-09T06:05:55;9.87;;;8.93;;
76566;SDS011;65428;53.194;6.132;2023-07-09T06:08:22;10.95;;;9.82;;
76566;SDS011;65428;53.194;6.132;2023-07-09T06:11:06;11.23;;;9.27;;
76566;SDS011;65428;53.194;6.132;2023-07-09T06:13:32;11.65;;;9.40;;
76566;SDS011;65428;53.194;6.132;2023-07-09T06:15:58;10.15;;;8.90;;
76566;SDS011;65428;53.194;6.132;2023-07-09T06:18:25;10.93;;;9.43;;
76566;SDS011;65428;53.194;6.132;2023-07-09T06:20:56;12.13;;;9.50;;
76566;SDS011;65428;53.194;6.132;2023-07-09T06:23:23;10.68;;;9.57;;
76566;SDS011;65428;53.194;6.132;2023-07-09T06:25:49;10.27;;;9.30;;
76566;SDS011;65428;53.194;6.132;2023-07-09T06:28:20;10.35;;;9.40;;
76566;SDS011;65428;53.194;6.132;2023-07-09T06:30:47;10.48;;;9.48;;
76566;SDS011;65428;53.194;6.132;2023-07-09T06:33:14;10.60;;;9.50;;
76566;SDS011;65428;53.194;6.132;2023-07-09T06:35:46;10.10;;;9.10;;
76566;SDS011;65428;53.194;6.132;2023-07-09T06:38:19;10.98;;;9.88;;
76566;SDS011;65428;53.194;6.132;2023-07-09T06:40:45;10.00;;;9.03;;
76566;SDS011;65428;53.194;6.132;2023-07-09T06:43:11;11.63;;;9.43;;
76566;SDS011;65428;53.194;6.132;2023-07-09T06:45:37;11.23;;;10.13;;
76566;SDS011;65428;53.194;6.132;2023-07-09T06:48:03;11.20;;;9.75;;
76566;SDS011;65428;53.194;6.132;2023-07-09T06:50:29;10.70;;;9.63;;
76566;SDS011;65428;53.194;6.132;2023-07-09T06:52:57;10.88;;;9.27;;
76566;SDS011;65428;53.194;6.132;2023-07-09T06:55:23;10.60;;;9.20;;
76566;SDS011;65428;53.194;6.132;2023-07-09T06:57:49;10.43;;;9.30;;
76566;SDS011;65428;53.194;6.132;2023-07-09T07:00:14;10.02;;;9.02;;
76566;SDS011;65428;53.194;6.132;2023-07-09T07:02:40;10.25;;;9.25;;
76566;SDS011;65428;53.194;6.132;2023-07-09T07:05:06;10.90;;;9.60;;
76566;SDS011;65428;53.194;6.132;2023-07-09T07:07:31;11.53;;;9.40;;
76566;SDS011;65428;53.194;6.132;2023-07-09T07:09:58;10.25;;;9.07;;
76566;SDS011;65428;53.194;6.132;2023-07-09T07:12:28;10.37;;;8.33;;
76566;SDS011;65428;53.194;6.132;2023-07-09T07:14:54;11.88;;;9.80;;
76566;SDS011;65428;53.194;6.132;2023-07-09T07:17:21;10.68;;;9.57;;
76566;SDS011;65428;53.194;6.132;2023-07-09T07:19:47;11.75;;;10.55;;
76566;SDS011;65428;53.194;6.132;2023-07-09T07:22:16;11.77;;;10.63;;
76566;SDS011;65428;53.194;6.132;2023-07-09T07:24:42;13.35;;;11.95;;
76566;SDS011;65428;53.194;6.132;2023-07-09T07:27:08;12.63;;;11.33;;
76566;SDS011;65428;53.194;6.132;2023-07-09T07:29:33;12.25;;;11.05;;
76566;SDS011;65428;53.194;6.132;2023-07-09T07:31:59;12.23;;;10.43;;
76566;SDS011;65428;53.194;6.132;2023-07-09T07:34:25;12.43;;;10.73;;
76566;SDS011;65428;53.194;6.132;2023-07-09T07:36:51;11.77;;;10.35;;
76566;SDS011;65428;53.194;6.132;2023-07-09T07:39:17;13.50;;;12.03;;
76566;SDS011;65428;53.194;6.132;2023-07-09T07:41:43;12.68;;;11.15;;
76566;SDS011;65428;53.194;6.132;2023-07-09T07:44:08;11.85;;;10.65;;
76566;SDS011;65428;53.194;6.132;2023-07-09T07:46:34;16.50;;;14.90;;
76566;SDS011;65428;53.194;6.132;2023-07-09T07:49:00;16.02;;;14.43;;
76566;SDS011;65428;53.194;6.132;2023-07-09T07:51:25;15.93;;;14.43;;
76566;SDS011;65428;53.194;6.132;2023-07-09T07:53:52;15.30;;;13.75;;
76566;SDS011;65428;53.194;6.132;2023-07-09T07:56:17;15.60;;;14.00;;
76566;SDS011;65428;53.194;6.132;2023-07-09T07:58:43;16.73;;;15.17;;
76566;SDS011;65428;53.194;6.132;2023-07-09T08:01:09;16.88;;;15.02;;
76566;SDS011;65428;53.194;6.132;2023-07-09T08:03:35;15.47;;;13.50;;
76566;SDS011;65428;53.194;6.132;2023-07-09T08:06:01;16.33;;;14.68;;
76566;SDS011;65428;53.194;6.132;2023-07-09T08:08:26;17.00;;;15.30;;
76566;SDS011;65428;53.194;6.132;2023-07-09T08:10:59;18.08;;;15.95;;
76566;SDS011;65428;53.194;6.132;2023-07-09T08:13:34;17.50;;;15.15;;
76566;SDS011;65428;53.194;6.132;2023-07-09T08:16:01;17.83;;;16.02;;
76566;SDS011;65428;53.194;6.132;2023-07-09T08:18:27;18.38;;;16.52;;
76566;SDS011;65428;53.194;6.132;2023-07-09T08:20:53;18.95;;;17.13;;
76566;SDS011;65428;53.194;6.132;2023-07-09T08:23:18;18.40;;;16.70;;
76566;SDS011;65428;53.194;6.132;2023-07-09T08:25:51;18.60;;;16.77;;
76566;SDS011;65428;53.194;6.132;2023-07-09T08:28:18;19.70;;;17.75;;
76566;SDS011;65428;53.194;6.132;2023-07-09T08:30:44;18.00;;;16.30;;
76566;SDS011;65428;53.194;6.132;2023-07-09T08:33:10;18.08;;;16.27;;
76566;SDS011;65428;53.194;6.132;2023-07-09T08:35:35;17.95;;;16.25;;
76566;SDS011;65428;53.194;6.132;2023-07-09T08:38:01;17.90;;;16.30;;
76566;SDS011;65428;53.194;6.132;2023-07-09T08:40:27;17.48;;;15.98;;
76566;SDS011;65428;53.194;6.132;2023-07-09T08:42:55;18.35;;;16.65;;
76566;SDS011;65428;53.194;6.132;2023-07-09T08:45:31;16.90;;;15.23;;
76566;SDS011;65428;53.194;6.132;2023-07-09T08:48:19;17.52;;;15.93;;
76566;SDS011;65428;53.194;6.132;2023-07-09T08:50:51;17.30;;;15.43;;
76566;SDS011;65428;53.194;6.132;2023-07-09T08:53:33;15.48;;;14.00;;
76566;SDS011;65428;53.194;6.132;2023-07-09T08:56:10;15.38;;;13.88;;
76566;SDS011;65428;53.194;6.132;2023-07-09T08:58:40;14.80;;;13.38;;
76566;SDS011;65428;53.194;6.132;2023-07-09T09:01:11;16.42;;;14.82;;
76566;SDS011;65428;53.194;6.132;2023-07-09T09:03:56;16.95;;;15.15;;
76566;SDS011;65428;53.194;6.132;2023-07-09T09:06:26;15.50;;;14.00;;
76566;SDS011;65428;53.194;6.132;2023-07-09T09:11:47;15.35;;;13.95;;
76566;SDS011;65428;53.194;6.132;2023-07-09T09:16:49;13.82;;;12.43;;
76566;SDS011;65428;53.194;6.132;2023-07-09T09:19:25;15.45;;;14.05;;
76566;SDS011;65428;53.194;6.132;2023-07-09T09:22:02;11.27;;;10.17;;
76566;SDS011;65428;53.194;6.132;2023-07-09T09:24:51;12.00;;;10.75;;
76566;SDS011;65428;53.194;6.132;2023-07-09T09:27:19;11.70;;;10.50;;
76566;SDS011;65428;53.194;6.132;2023-07-09T09:29:45;12.98;;;11.05;;
76566;SDS011;65428;53.194;6.132;2023-07-09T09:32:16;11.52;;;10.38;;
76566;SDS011;65428;53.194;6.132;2023-07-09T09:34:47;10.73;;;9.73;;
76566;SDS011;65428;53.194;6.132;2023-07-09T09:37:15;11.60;;;10.40;;
76566;SDS011;65428;53.194;6.132;2023-07-09T09:39:52;11.90;;;10.90;;
76566;SDS011;65428;53.194;6.132;2023-07-09T09:42:18;11.03;;;9.93;;
76566;SDS011;65428;53.194;6.132;2023-07-09T09:44:44;10.27;;;9.27;;
76566;SDS011;65428;53.194;6.132;2023-07-09T09:47:11;10.27;;;8.52;;
76566;SDS011;65428;53.194;6.132;2023-07-09T09:49:40;10.18;;;8.95;;
76566;SDS011;65428;53.194;6.132;2023-07-09T09:52:12;11.00;;;9.00;;
76566;SDS011;65428;53.194;6.132;2023-07-09T09:54:40;9.43;;;8.50;;
76566;SDS011;65428;53.194;6.132;2023-07-09T09:57:15;8.77;;;7.88;;
76566;SDS011;65428;53.194;6.132;2023-07-09T09:59:43;9.95;;;8.95;;
76566;SDS011;65428;53.194;6.132;2023-07-09T10:02:21;9.52;;;8.48;;
76566;SDS011;65428;53.194;6.132;2023-07-09T10:04:49;9.77;;;8.77;;
76566;SDS011;65428;53.194;6.132;2023-07-09T10:07:21;10.18;;;9.00;;
76566;SDS011;65428;53.194;6.132;2023-07-09T10:09:53;9.90;;;8.90;;
76566;SDS011;65428;53.194;6.132;2023-07-09T10:12:36;9.23;;;8.10;;
76566;SDS011;65428;53.194;6.132;2023-07-09T10:21:30;6.30;;;5.55;;
76566;SDS011;65428;53.194;6.132;2023-07-09T10:32:57;4.88;;;4.32;;
76566;SDS011;65428;53.194;6.132;2023-07-09T10:36:01;5.10;;;3.70;;
76566;SDS011;65428;53.194;6.132;2023-07-09T10:38:20;5.10;;;4.15;;
76566;SDS011;65428;53.194;6.132;2023-07-09T10:40:59;5.35;;;3.85;;
76566;SDS011;65428;53.194;6.132;2023-07-09T10:46:02;4.88;;;3.97;;
76566;SDS011;65428;53.194;6.132;2023-07-09T10:51:08;4.35;;;3.42;;
76566;SDS011;65428;53.194;6.132;2023-07-09T10:54:07;5.93;;;3.95;;
76566;SDS011;65428;53.194;6.132;2023-07-09T10:57:09;5.20;;;3.90;;
76566;SDS011;65428;53.194;6.132;2023-07-09T10:59:40;5.78;;;3.97;;
76566;SDS011;65428;53.194;6.132;2023-07-09T11:02:28;6.20;;;3.80;;
76566;SDS011;65428;53.194;6.132;2023-07-09T11:04:57;5.88;;;3.70;;
76566;SDS011;65428;53.194;6.132;2023-07-09T11:07:48;4.32;;;3.40;;
76566;SDS011;65428;53.194;6.132;2023-07-09T11:10:34;5.20;;;4.20;;
76566;SDS011;65428;53.194;6.132;2023-07-09T11:13:41;4.95;;;4.05;;
76566;SDS011;65428;53.194;6.132;2023-07-09T11:16:11;5.32;;;3.72;;
76566;SDS011;65428;53.194;6.132;2023-07-09T11:18:51;4.30;;;3.90;;
76566;SDS011;65428;53.194;6.132;2023-07-09T11:21:23;5.70;;;4.40;;
76566;SDS011;65428;53.194;6.132;2023-07-09T11:23:50;4.32;;;3.90;;
76566;SDS011;65428;53.194;6.132;2023-07-09T11:26:27;4.10;;;3.70;;
76566;SDS011;65428;53.194;6.132;2023-07-09T11:28:56;4.95;;;3.50;;
76566;SDS011;65428;53.194;6.132;2023-07-09T11:31:36;4.10;;;3.70;;
76566;SDS011;65428;53.194;6.132;2023-07-09T11:36:32;4.22;;;3.83;;
76566;SDS011;65428;53.194;6.132;2023-07-09T11:38:59;5.73;;;4.07;;
76566;SDS011;65428;53.194;6.132;2023-07-09T11:44:20;5.50;;;3.90;;
76566;SDS011;65428;53.194;6.132;2023-07-09T11:49:57;4.93;;;4.00;;
76566;SDS011;65428;53.194;6.132;2023-07-09T11:52:35;4.80;;;3.65;;
76566;SDS011;65428;53.194;6.132;2023-07-09T11:58:04;4.82;;;3.75;;
76566;SDS011;65428;53.194;6.132;2023-07-09T12:00:37;5.13;;;3.93;;
76566;SDS011;65428;53.194;6.132;2023-07-09T12:03:10;4.93;;;3.88;;
76566;SDS011;65428;53.194;6.132;2023-07-09T12:05:51;4.60;;;3.80;;
76566;SDS011;65428;53.194;6.132;2023-07-09T12:08:28;4.57;;;3.50;;
76566;SDS011;65428;53.194;6.132;2023-07-09T12:11:05;5.75;;;3.85;;
76566;SDS011;65428;53.194;6.132;2023-07-09T12:13:37;4.72;;;4.05;;
76566;SDS011;65428;53.194;6.132;2023-07-09T12:16:04;4.90;;;3.92;;
76566;SDS011;65428;53.194;6.132;2023-07-09T12:18:45;5.10;;;4.40;;
76566;SDS011;65428;53.194;6.132;2023-07-09T12:21:11;5.78;;;3.90;;
76566;SDS011;65428;53.194;6.132;2023-07-09T12:23:37;4.57;;;4.10;;
76566;SDS011;65428;53.194;6.132;2023-07-09T12:26:16;4.50;;;3.93;;
76566;SDS011;65428;53.194;6.132;2023-07-09T12:28:43;5.43;;;4.43;;
76566;SDS011;65428;53.194;6.132;2023-07-09T12:31:16;4.60;;;4.20;;
76566;SDS011;65428;53.194;6.132;2023-07-09T12:33:48;5.88;;;5.05;;
76566;SDS011;65428;53.194;6.132;2023-07-09T12:36:17;5.72;;;4.30;;
76566;SDS011;65428;53.194;6.132;2023-07-09T12:38:44;5.43;;;4.90;;
76566;SDS011;65428;53.194;6.132;2023-07-09T12:43:48;6.30;;;4.90;;
76566;SDS011;65428;53.194;6.132;2023-07-09T12:46:14;5.03;;;4.50;;
76566;SDS011;65428;53.194;6.132;2023-07-09T12:48:41;6.80;;;4.90;;
76566;SDS011;65428;53.194;6.132;2023-07-09T12:51:07;7.63;;;4.30;;
76566;SDS011;65428;53.194;6.132;2023-07-09T12:53:33;6.22;;;4.80;;
76566;SDS011;65428;53.194;6.132;2023-07-09T12:56:01;5.03;;;4.43;;
76566;SDS011;65428;53.194;6.132;2023-07-09T12:58:31;5.88;;;4.70;;
76566;SDS011;65428;53.194;6.132;2023-07-09T13:01:04;5.80;;;5.10;;
76566;SDS011;65428;53.194;6.132;2023-07-09T13:03:32;5.57;;;4.30;;
76566;SDS011;65428;53.194;6.132;2023-07-09T13:06:03;5.43;;;4.43;;
76566;SDS011;65428;53.194;6.132;2023-07-09T13:08:32;5.50;;;4.63;;
76566;SDS011;65428;53.194;6.132;2023-07-09T13:11:14;6.45;;;4.72;;
76566;SDS011;65428;53.194;6.132;2023-07-09T13:14:05;5.37;;;4.87;;
76566;SDS011;65428;53.194;6.132;2023-07-09T13:16:30;7.07;;;5.18;;
76566;SDS011;65428;53.194;6.132;2023-07-09T13:19:02;5.82;;;4.63;;
76566;SDS011;65428;53.194;6.132;2023-07-09T13:21:28;6.17;;;4.50;;
76566;SDS011;65428;53.194;6.132;2023-07-09T13:23:54;5.55;;;4.50;;
76566;SDS011;65428;53.194;6.132;2023-07-09T13:26:20;5.18;;;4.60;;
76566;SDS011;65428;53.194;6.132;2023-07-09T13:28:46;5.32;;;4.75;;
76566;SDS011;65428;53.194;6.132;2023-07-09T13:31:17;5.82;;;4.63;;
76566;SDS011;65428;53.194;6.132;2023-07-09T13:33:44;6.20;;;4.60;;
76566;SDS011;65428;53.194;6.132;2023-07-09T13:36:17;5.00;;;4.40;;
76566;SDS011;65428;53.194;6.132;2023-07-09T13:38:43;5.65;;;4.30;;
76566;SDS011;65428;53.194;6.132;2023-07-09T13:41:10;5.73;;;4.60;;
76566;SDS011;65428;53.194;6.132;2023-07-09T13:43:42;5.75;;;4.30;;
76566;SDS011;65428;53.194;6.132;2023-07-09T13:46:12;5.70;;;4.50;;
76566;SDS011;65428;53.194;6.132;2023-07-09T13:48:39;6.75;;;4.82;;
76566;SDS011;65428;53.194;6.132;2023-07-09T13:51:16;5.13;;;4.57;;
76566;SDS011;65428;53.194;6.132;2023-07-09T13:53:44;5.90;;;4.60;;
76566;SDS011;65428;53.194;6.132;2023-07-09T13:56:11;6.82;;;4.95;;
76566;SDS011;65428;53.194;6.132;2023-07-09T13:58:37;4.82;;;4.35;;
76566;SDS011;65428;53.194;6.132;2023-07-09T14:01:23;10.00;;;5.60;;
76566;SDS011;65428;53.194;6.132;2023-07-09T14:03:49;9.48;;;6.22;;
76566;SDS011;65428;53.194;6.132;2023-07-09T14:06:26;8.07;;;5.88;;
76566;SDS011;65428;53.194;6.132;2023-07-09T14:08:51;7.40;;;5.53;;
76566;SDS011;65428;53.194;6.132;2023-07-09T14:11:17;6.43;;;5.38;;
76566;SDS011;65428;53.194;6.132;2023-07-09T14:13:43;7.88;;;5.35;;
76566;SDS011;65428;53.194;6.132;2023-07-09T14:16:10;6.93;;;5.35;;
76566;SDS011;65428;53.194;6.132;2023-07-09T14:18:37;9.02;;;5.32;;
76566;SDS011;65428;53.194;6.132;2023-07-09T14:21:06;6.25;;;4.85;;
76566;SDS011;65428;53.194;6.132;2023-07-09T14:23:39;6.32;;;5.05;;
76566;SDS011;65428;53.194;6.132;2023-07-09T14:26:05;6.50;;;5.00;;
76566;SDS011;65428;53.194;6.132;2023-07-09T14:28:34;7.07;;;5.15;;
76566;SDS011;65428;53.194;6.132;2023-07-09T14:31:21;7.45;;;5.20;;
76566;SDS011;65428;53.194;6.132;2023-07-09T14:33:50;9.23;;;5.50;;
76566;SDS011;65428;53.194;6.132;2023-07-09T14:36:16;6.55;;;5.88;;
76566;SDS011;65428;53.194;6.132;2023-07-09T14:38:41;7.90;;;7.10;;
76566;SDS011;65428;53.194;6.132;2023-07-09T14:41:18;8.20;;;6.80;;
76566;SDS011;65428;53.194;6.132;2023-07-09T14:43:48;7.30;;;5.43;;
76566;SDS011;65428;53.194;6.132;2023-07-09T14:46:14;6.43;;;4.82;;
76566;SDS011;65428;53.194;6.132;2023-07-09T14:48:40;6.10;;;4.13;;
76566;SDS011;65428;53.194;6.132;2023-07-09T14:51:12;6.67;;;4.40;;
76566;SDS011;65428;53.194;6.132;2023-07-09T14:53:41;5.63;;;3.60;;
76566;SDS011;65428;53.194;6.132;2023-07-09T14:56:07;5.20;;;3.80;;
76566;SDS011;65428;53.194;6.132;2023-07-09T14:58:35;5.85;;;4.07;;
76566;SDS011;65428;53.194;6.132;2023-07-09T15:01:01;6.18;;;3.90;;
76566;SDS011;65428;53.194;6.132;2023-07-09T15:03:27;5.47;;;3.90;;
76566;SDS011;65428;53.194;6.132;2023-07-09T15:05:53;7.07;;;3.78;;
76566;SDS011;65428;53.194;6.132;2023-07-09T15:08:22;7.93;;;4.50;;
76566;SDS011;65428;53.194;6.132;2023-07-09T15:10:52;9.88;;;5.10;;
76566;SDS011;65428;53.194;6.132;2023-07-09T15:13:23;11.57;;;6.25;;
76566;SDS011;65428;53.194;6.132;2023-07-09T15:15:50;17.08;;;10.93;;
76566;SDS011;65428;53.194;6.132;2023-07-09T15:18:16;20.33;;;16.60;;
76566;SDS011;65428;53.194;6.132;2023-07-09T15:20:47;29.30;;;20.58;;
76566;SDS011;65428;53.194;6.132;2023-07-09T15:23:24;62.67;;;32.88;;
76566;SDS011;65428;53.194;6.132;2023-07-09T15:25:51;79.70;;;37.95;;
76566;SDS011;65428;53.194;6.132;2023-07-09T15:28:17;77.68;;;43.53;;
76566;SDS011;65428;53.194;6.132;2023-07-09T15:30:43;101.55;;;33.17;;
76566;SDS011;65428;53.194;6.132;2023-07-09T15:33:15;188.25;;;53.13;;
76566;SDS011;65428;53.194;6.132;2023-07-09T15:35:43;161.37;;;40.13;;
76566;SDS011;65428;53.194;6.132;2023-07-09T15:38:32;939.05;;;129.90;;
76566;SDS011;65428;53.194;6.132;2023-07-09T15:40:59;119.90;;;38.40;;
76566;SDS011;65428;53.194;6.132;2023-07-09T15:43:25;143.18;;;51.22;;
76566;SDS011;65428;53.194;6.132;2023-07-09T15:45:51;373.15;;;67.13;;